sensor_id;sensor_type;location;lat;lon;timestamp;temperature;humidity
66920;DHT22;53831;52.090;17.026;2023-07-22T00:00:25;14.90;99.90
66920;DHT22;53831;52.090;17.026;2023-07-22T00:01:26;14.90;99.90
66920;DHT22;53831;52.090;17.026;2023-07-22T00:02:27;14.90;99.90
66920;DHT22;53831;52.090;17.026;2023-07-22T00:03:27;14.90;99.90
66920;DHT22;53831;52.090;17.026;2023-07-22T00:04:28;14.90;99.90
66920;DHT22;53831;52.090;17.026;2023-07-22T00:05:29;14.90;99.90
66920;DHT22;53831;52.090;17.026;2023-07-22T00:06:29;14.90;99.90
66920;DHT22;53831;52.090;17.026;2023-07-22T00:07:30;15.00;99.90
66920;DHT22;53831;52.090;17.026;2023-07-22T00:08:31;15.00;99.90
66920;DHT22;53831;52.090;17.026;2023-07-22T00:09:32;15.00;99.90
66920;DHT22;53831;52.090;17.026;2023-07-22T00:10:34;15.00;99.90
66920;DHT22;53831;52.090;17.026;2023-07-22T00:11:34;15.00;99.90
66920;DHT22;53831;52.090;17.026;2023-07-22T00:12:35;15.00;99.90
66920;DHT22;53831;52.090;17.026;2023-07-22T00:13:35;15.00;99.90
66920;DHT22;53831;52.090;17.026;2023-07-22T00:14:38;15.00;99.90
66920;DHT22;53831;52.090;17.026;2023-07-22T00:15:39;15.00;99.90
66920;DHT22;53831;52.090;17.026;2023-07-22T00:16:40;15.00;99.90
66920;DHT22;53831;52.090;17.026;2023-07-22T00:17:40;15.00;99.90
66920;DHT22;53831;52.090;17.026;2023-07-22T00:18:41;15.10;99.90
66920;DHT22;53831;52.090;17.026;2023-07-22T00:19:42;15.00;99.90
66920;DHT22;53831;52.090;17.026;2023-07-22T00:20:42;15.10;99.90
66920;DHT22;53831;52.090;17.026;2023-07-22T00:21:43;15.10;99.90
66920;DHT22;53831;52.090;17.026;2023-07-22T00:22:44;15.10;99.90
66920;DHT22;53831;52.090;17.026;2023-07-22T00:23:45;15.10;99.90
66920;DHT22;53831;52.090;17.026;2023-07-22T00:24:46;15.10;99.90
66920;DHT22;53831;52.090;17.026;2023-07-22T00:25:47;15.10;99.90
66920;DHT22;53831;52.090;17.026;2023-07-22T00:26:47;15.10;99.90
66920;DHT22;53831;52.090;17.026;2023-07-22T00:27:50;15.10;99.90
66920;DHT22;53831;52.090;17.026;2023-07-22T00:28:50;15.10;99.90
66920;DHT22;53831;52.090;17.026;2023-07-22T00:29:51;15.10;99.90
66920;DHT22;53831;52.090;17.026;2023-07-22T00:30:51;15.10;99.90
66920;DHT22;53831;52.090;17.026;2023-07-22T00:31:54;15.10;99.90
66920;DHT22;53831;52.090;17.026;2023-07-22T00:32:54;15.00;99.90
66920;DHT22;53831;52.090;17.026;2023-07-22T00:33:55;15.10;99.90
66920;DHT22;53831;52.090;17.026;2023-07-22T00:34:56;15.10;99.90
66920;DHT22;53831;52.090;17.026;2023-07-22T00:35:57;15.00;99.90
66920;DHT22;53831;52.090;17.026;2023-07-22T00:36:57;15.10;99.90
66920;DHT22;53831;52.090;17.026;2023-07-22T00:38:02;15.10;99.90
66920;DHT22;53831;52.090;17.026;2023-07-22T00:39:02;15.10;99.90
66920;DHT22;53831;52.090;17.026;2023-07-22T00:40:03;15.10;99.90
66920;DHT22;53831;52.090;17.026;2023-07-22T00:41:12;15.00;99.90
66920;DHT22;53831;52.090;17.026;2023-07-22T00:42:12;15.00;99.90
66920;DHT22;53831;52.090;17.026;2023-07-22T00:43:13;15.00;99.90
66920;DHT22;53831;52.090;17.026;2023-07-22T00:44:13;15.00;99.90
66920;DHT22;53831;52.090;17.026;2023-07-22T00:45:14;15.00;99.90
66920;DHT22;53831;52.090;17.026;2023-07-22T00:46:15;14.90;99.90
66920;DHT22;53831;52.090;17.026;2023-07-22T00:47:15;14.90;99.90
66920;DHT22;53831;52.090;17.026;2023-07-22T00:48:16;14.90;99.90
66920;DHT22;53831;52.090;17.026;2023-07-22T00:49:18;14.90;99.90
66920;DHT22;53831;52.090;17.026;2023-07-22T00:50:18;14.80;99.90
66920;DHT22;53831;52.090;17.026;2023-07-22T00:51:19;14.80;99.90
66920;DHT22;53831;52.090;17.026;2023-07-22T00:52:21;14.70;99.90
66920;DHT22;53831;52.090;17.026;2023-07-22T00:53:22;14.70;99.90
66920;DHT22;53831;52.090;17.026;2023-07-22T00:54:22;14.70;99.90
66920;DHT22;53831;52.090;17.026;2023-07-22T00:55:23;14.70;99.90
66920;DHT22;53831;52.090;17.026;2023-07-22T00:56:24;14.70;99.90
66920;DHT22;53831;52.090;17.026;2023-07-22T00:57:25;14.70;99.90
66920;DHT22;53831;52.090;17.026;2023-07-22T00:58:26;14.70;99.90
66920;DHT22;53831;52.090;17.026;2023-07-22T00:59:26;14.70;99.90
66920;DHT22;53831;52.090;17.026;2023-07-22T01:00:27;14.70;99.90
66920;DHT22;53831;52.090;17.026;2023-07-22T01:01:28;14.70;99.90
66920;DHT22;53831;52.090;17.026;2023-07-22T01:02:29;14.70;99.90
66920;DHT22;53831;52.090;17.026;2023-07-22T01:03:29;14.70;99.90
66920;DHT22;53831;52.090;17.026;2023-07-22T01:04:31;14.70;99.90
66920;DHT22;53831;52.090;17.026;2023-07-22T01:05:33;14.70;99.90
66920;DHT22;53831;52.090;17.026;2023-07-22T01:06:34;14.60;99.90
66920;DHT22;53831;52.090;17.026;2023-07-22T01:07:35;14.60;99.90
66920;DHT22;53831;52.090;17.026;2023-07-22T01:08:36;14.60;99.90
66920;DHT22;53831;52.090;17.026;2023-07-22T01:09:38;14.60;99.90
66920;DHT22;53831;52.090;17.026;2023-07-22T01:10:39;14.60;99.90
66920;DHT22;53831;52.090;17.026;2023-07-22T01:11:39;14.70;99.90
66920;DHT22;53831;52.090;17.026;2023-07-22T01:12:40;14.60;99.90
66920;DHT22;53831;52.090;17.026;2023-07-22T01:13:41;14.60;99.90
66920;DHT22;53831;52.090;17.026;2023-07-22T01:14:41;14.60;99.90
66920;DHT22;53831;52.090;17.026;2023-07-22T01:15:42;14.60;99.90
66920;DHT22;53831;52.090;17.026;2023-07-22T01:16:44;14.60;99.90
66920;DHT22;53831;52.090;17.026;2023-07-22T01:17:45;14.60;99.90
66920;DHT22;53831;52.090;17.026;2023-07-22T01:18:46;14.60;99.90
66920;DHT22;53831;52.090;17.026;2023-07-22T01:19:47;14.60;99.90
66920;DHT22;53831;52.090;17.026;2023-07-22T01:20:48;14.60;99.90
66920;DHT22;53831;52.090;17.026;2023-07-22T01:21:48;14.60;99.90
66920;DHT22;53831;52.090;17.026;2023-07-22T01:22:53;14.60;99.90
66920;DHT22;53831;52.090;17.026;2023-07-22T01:23:54;14.70;99.90
66920;DHT22;53831;52.090;17.026;2023-07-22T01:24:55;14.60;99.90
66920;DHT22;53831;52.090;17.026;2023-07-22T01:25:57;14.70;99.90
66920;DHT22;53831;52.090;17.026;2023-07-22T01:26:58;14.70;99.90
66920;DHT22;53831;52.090;17.026;2023-07-22T01:27:59;14.60;99.90
66920;DHT22;53831;52.090;17.026;2023-07-22T01:29:06;14.60;99.90
66920;DHT22;53831;52.090;17.026;2023-07-22T01:30:07;14.70;99.90
66920;DHT22;53831;52.090;17.026;2023-07-22T01:31:10;14.60;99.90
66920;DHT22;53831;52.090;17.026;2023-07-22T01:32:10;14.60;99.90
66920;DHT22;53831;52.090;17.026;2023-07-22T01:33:11;14.60;99.90
66920;DHT22;53831;52.090;17.026;2023-07-22T01:34:12;14.50;99.90
66920;DHT22;53831;52.090;17.026;2023-07-22T01:35:13;14.50;99.90
66920;DHT22;53831;52.090;17.026;2023-07-22T01:36:14;14.50;99.90
66920;DHT22;53831;52.090;17.026;2023-07-22T01:37:14;14.40;99.90
66920;DHT22;53831;52.090;17.026;2023-07-22T01:38:15;14.40;99.90
66920;DHT22;53831;52.090;17.026;2023-07-22T01:39:16;14.30;99.90
66920;DHT22;53831;52.090;17.026;2023-07-22T01:40:17;14.30;99.90
66920;DHT22;53831;52.090;17.026;2023-07-22T01:41:18;14.30;99.90
66920;DHT22;53831;52.090;17.026;2023-07-22T01:42:19;14.30;99.90
66920;DHT22;53831;52.090;17.026;2023-07-22T01:43:19;14.20;99.90
66920;DHT22;53831;52.090;17.026;2023-07-22T01:44:20;14.20;99.90
66920;DHT22;53831;52.090;17.026;2023-07-22T01:45:21;14.20;99.90
66920;DHT22;53831;52.090;17.026;2023-07-22T01:46:21;14.20;99.90
66920;DHT22;53831;52.090;17.026;2023-07-22T01:47:22;14.10;99.90
66920;DHT22;53831;52.090;17.026;2023-07-22T01:48:23;14.10;99.90
66920;DHT22;53831;52.090;17.026;2023-07-22T01:49:24;14.10;99.90
66920;DHT22;53831;52.090;17.026;2023-07-22T01:50:25;14.10;99.90
66920;DHT22;53831;52.090;17.026;2023-07-22T01:51:25;14.10;99.90
66920;DHT22;53831;52.090;17.026;2023-07-22T01:52:26;14.10;99.90
66920;DHT22;53831;52.090;17.026;2023-07-22T01:53:27;14.10;99.90
66920;DHT22;53831;52.090;17.026;2023-07-22T01:54:27;14.10;99.90
66920;DHT22;53831;52.090;17.026;2023-07-22T01:55:28;14.10;99.90
66920;DHT22;53831;52.090;17.026;2023-07-22T01:56:29;14.20;99.90
66920;DHT22;53831;52.090;17.026;2023-07-22T01:57:30;14.20;99.90
66920;DHT22;53831;52.090;17.026;2023-07-22T01:58:31;14.20;99.90
66920;DHT22;53831;52.090;17.026;2023-07-22T01:59:32;14.10;99.90
66920;DHT22;53831;52.090;17.026;2023-07-22T02:00:33;14.10;99.90
66920;DHT22;53831;52.090;17.026;2023-07-22T02:01:33;14.10;99.90
66920;DHT22;53831;52.090;17.026;2023-07-22T02:02:34;14.10;99.90
66920;DHT22;53831;52.090;17.026;2023-07-22T02:03:35;14.10;99.90
66920;DHT22;53831;52.090;17.026;2023-07-22T02:04:36;14.00;99.90
66920;DHT22;53831;52.090;17.026;2023-07-22T02:05:36;14.00;99.90
66920;DHT22;53831;52.090;17.026;2023-07-22T02:06:37;14.00;99.90
66920;DHT22;53831;52.090;17.026;2023-07-22T02:07:38;14.00;99.90
66920;DHT22;53831;52.090;17.026;2023-07-22T02:08:39;14.00;99.90
66920;DHT22;53831;52.090;17.026;2023-07-22T02:09:40;14.00;99.90
66920;DHT22;53831;52.090;17.026;2023-07-22T02:10:41;14.00;99.90
66920;DHT22;53831;52.090;17.026;2023-07-22T02:11:42;14.00;99.90
66920;DHT22;53831;52.090;17.026;2023-07-22T02:12:42;14.00;99.90
66920;DHT22;53831;52.090;17.026;2023-07-22T02:13:43;14.00;99.90
66920;DHT22;53831;52.090;17.026;2023-07-22T02:14:44;14.00;99.90
66920;DHT22;53831;52.090;17.026;2023-07-22T02:15:44;14.00;99.90
66920;DHT22;53831;52.090;17.026;2023-07-22T02:16:45;14.00;99.90
66920;DHT22;53831;52.090;17.026;2023-07-22T02:17:46;14.00;99.90
66920;DHT22;53831;52.090;17.026;2023-07-22T02:18:46;14.00;99.90
66920;DHT22;53831;52.090;17.026;2023-07-22T02:19:48;14.00;99.90
66920;DHT22;53831;52.090;17.026;2023-07-22T02:20:48;14.00;99.90
66920;DHT22;53831;52.090;17.026;2023-07-22T02:21:49;14.00;99.90
66920;DHT22;53831;52.090;17.026;2023-07-22T02:22:49;14.00;99.90
66920;DHT22;53831;52.090;17.026;2023-07-22T02:23:50;14.00;99.90
66920;DHT22;53831;52.090;17.026;2023-07-22T02:24:51;14.00;99.90
66920;DHT22;53831;52.090;17.026;2023-07-22T02:25:52;13.90;99.90
66920;DHT22;53831;52.090;17.026;2023-07-22T02:26:56;14.00;99.90
66920;DHT22;53831;52.090;17.026;2023-07-22T02:27:56;14.00;99.90
66920;DHT22;53831;52.090;17.026;2023-07-22T02:28:57;14.00;99.90
66920;DHT22;53831;52.090;17.026;2023-07-22T02:29:58;14.00;99.90
66920;DHT22;53831;52.090;17.026;2023-07-22T02:31:02;14.00;99.90
66920;DHT22;53831;52.090;17.026;2023-07-22T02:32:07;13.90;99.90
66920;DHT22;53831;52.090;17.026;2023-07-22T02:33:07;13.90;99.90
66920;DHT22;53831;52.090;17.026;2023-07-22T02:34:09;14.00;99.90
66920;DHT22;53831;52.090;17.026;2023-07-22T02:35:10;13.90;99.90
66920;DHT22;53831;52.090;17.026;2023-07-22T02:36:11;13.90;99.90
66920;DHT22;53831;52.090;17.026;2023-07-22T02:37:11;13.90;99.90
66920;DHT22;53831;52.090;17.026;2023-07-22T02:38:12;13.90;99.90
66920;DHT22;53831;52.090;17.026;2023-07-22T02:39:14;13.90;99.90
66920;DHT22;53831;52.090;17.026;2023-07-22T02:40:15;13.90;99.90
66920;DHT22;53831;52.090;17.026;2023-07-22T02:41:16;13.90;99.90
66920;DHT22;53831;52.090;17.026;2023-07-22T02:42:16;13.80;99.90
66920;DHT22;53831;52.090;17.026;2023-07-22T02:43:18;13.80;99.90
66920;DHT22;53831;52.090;17.026;2023-07-22T02:44:18;13.80;99.90
66920;DHT22;53831;52.090;17.026;2023-07-22T02:45:19;13.90;99.90
66920;DHT22;53831;52.090;17.026;2023-07-22T02:46:20;13.80;99.90
66920;DHT22;53831;52.090;17.026;2023-07-22T02:47:20;13.80;99.90
66920;DHT22;53831;52.090;17.026;2023-07-22T02:48:21;13.80;99.90
66920;DHT22;53831;52.090;17.026;2023-07-22T02:49:21;13.80;99.90
66920;DHT22;53831;52.090;17.026;2023-07-22T02:50:22;13.80;99.90
66920;DHT22;53831;52.090;17.026;2023-07-22T02:51:23;13.80;99.90
66920;DHT22;53831;52.090;17.026;2023-07-22T02:52:23;13.80;99.90
66920;DHT22;53831;52.090;17.026;2023-07-22T02:53:24;13.80;99.90
66920;DHT22;53831;52.090;17.026;2023-07-22T02:54:25;13.80;99.90
66920;DHT22;53831;52.090;17.026;2023-07-22T02:55:25;13.80;99.90
66920;DHT22;53831;52.090;17.026;2023-07-22T02:56:26;13.80;99.90
66920;DHT22;53831;52.090;17.026;2023-07-22T02:57:27;13.80;99.90
66920;DHT22;53831;52.090;17.026;2023-07-22T02:58:30;13.70;99.90
66920;DHT22;53831;52.090;17.026;2023-07-22T02:59:31;13.80;99.90
66920;DHT22;53831;52.090;17.026;2023-07-22T03:00:35;13.70;99.90
66920;DHT22;53831;52.090;17.026;2023-07-22T03:01:36;13.70;99.90
66920;DHT22;53831;52.090;17.026;2023-07-22T03:02:37;13.70;99.90
66920;DHT22;53831;52.090;17.026;2023-07-22T03:03:38;13.70;99.90
66920;DHT22;53831;52.090;17.026;2023-07-22T03:04:40;13.70;99.90
66920;DHT22;53831;52.090;17.026;2023-07-22T03:05:42;13.70;99.90
66920;DHT22;53831;52.090;17.026;2023-07-22T03:06:42;13.70;99.90
66920;DHT22;53831;52.090;17.026;2023-07-22T03:07:44;13.80;99.90
66920;DHT22;53831;52.090;17.026;2023-07-22T03:08:44;13.80;99.90
66920;DHT22;53831;52.090;17.026;2023-07-22T03:09:45;13.70;99.90
66920;DHT22;53831;52.090;17.026;2023-07-22T03:10:46;13.80;99.90
66920;DHT22;53831;52.090;17.026;2023-07-22T03:11:49;13.80;99.90
66920;DHT22;53831;52.090;17.026;2023-07-22T03:12:49;13.70;99.90
66920;DHT22;53831;52.090;17.026;2023-07-22T03:13:50;13.70;99.90
66920;DHT22;53831;52.090;17.026;2023-07-22T03:14:51;13.70;99.90
66920;DHT22;53831;52.090;17.026;2023-07-22T03:15:52;13.70;99.90
66920;DHT22;53831;52.090;17.026;2023-07-22T03:16:53;13.80;99.90
66920;DHT22;53831;52.090;17.026;2023-07-22T03:17:54;13.70;99.90
66920;DHT22;53831;52.090;17.026;2023-07-22T03:18:56;13.70;99.90
66920;DHT22;53831;52.090;17.026;2023-07-22T03:19:56;13.80;99.90
66920;DHT22;53831;52.090;17.026;2023-07-22T03:20:57;13.70;99.90
66920;DHT22;53831;52.090;17.026;2023-07-22T03:21:58;13.70;99.90
66920;DHT22;53831;52.090;17.026;2023-07-22T03:22:59;13.80;99.90
66920;DHT22;53831;52.090;17.026;2023-07-22T03:23:59;13.80;99.90
66920;DHT22;53831;52.090;17.026;2023-07-22T03:25:00;13.80;99.90
66920;DHT22;53831;52.090;17.026;2023-07-22T03:26:01;13.80;99.90
66920;DHT22;53831;52.090;17.026;2023-07-22T03:27:01;13.80;99.90
66920;DHT22;53831;52.090;17.026;2023-07-22T03:28:03;13.90;99.90
66920;DHT22;53831;52.090;17.026;2023-07-22T03:29:04;13.80;99.90
66920;DHT22;53831;52.090;17.026;2023-07-22T03:30:06;13.90;99.90
66920;DHT22;53831;52.090;17.026;2023-07-22T03:31:08;13.90;99.90
66920;DHT22;53831;52.090;17.026;2023-07-22T03:32:11;13.90;99.90
66920;DHT22;53831;52.090;17.026;2023-07-22T03:33:12;13.90;99.90
66920;DHT22;53831;52.090;17.026;2023-07-22T03:34:13;13.90;99.90
66920;DHT22;53831;52.090;17.026;2023-07-22T03:35:14;13.90;99.90
66920;DHT22;53831;52.090;17.026;2023-07-22T03:36:14;13.90;99.90
66920;DHT22;53831;52.090;17.026;2023-07-22T03:37:15;13.90;99.90
66920;DHT22;53831;52.090;17.026;2023-07-22T03:38:16;13.90;99.90
66920;DHT22;53831;52.090;17.026;2023-07-22T03:39:16;13.90;99.90
66920;DHT22;53831;52.090;17.026;2023-07-22T03:40:17;14.00;99.90
66920;DHT22;53831;52.090;17.026;2023-07-22T03:41:20;13.90;99.90
66920;DHT22;53831;52.090;17.026;2023-07-22T03:42:21;13.90;99.90
66920;DHT22;53831;52.090;17.026;2023-07-22T03:43:22;13.90;99.90
66920;DHT22;53831;52.090;17.026;2023-07-22T03:44:23;14.00;99.90
66920;DHT22;53831;52.090;17.026;2023-07-22T03:45:24;14.00;99.90
66920;DHT22;53831;52.090;17.026;2023-07-22T03:46:24;14.00;99.90
66920;DHT22;53831;52.090;17.026;2023-07-22T03:47:25;14.00;99.90
66920;DHT22;53831;52.090;17.026;2023-07-22T03:48:25;14.00;99.90
66920;DHT22;53831;52.090;17.026;2023-07-22T03:49:26;14.00;99.90
66920;DHT22;53831;52.090;17.026;2023-07-22T03:50:27;14.00;99.90
66920;DHT22;53831;52.090;17.026;2023-07-22T03:51:28;14.00;99.90
66920;DHT22;53831;52.090;17.026;2023-07-22T03:52:29;14.00;99.90
66920;DHT22;53831;52.090;17.026;2023-07-22T03:53:29;14.00;99.90
66920;DHT22;53831;52.090;17.026;2023-07-22T03:54:30;14.00;99.90
66920;DHT22;53831;52.090;17.026;2023-07-22T03:55:31;14.10;99.90
66920;DHT22;53831;52.090;17.026;2023-07-22T03:56:32;14.10;99.90
66920;DHT22;53831;52.090;17.026;2023-07-22T03:57:32;14.10;99.90
66920;DHT22;53831;52.090;17.026;2023-07-22T03:58:33;14.10;99.90
66920;DHT22;53831;52.090;17.026;2023-07-22T03:59:33;14.10;99.90
66920;DHT22;53831;52.090;17.026;2023-07-22T04:00:34;14.10;99.90
66920;DHT22;53831;52.090;17.026;2023-07-22T04:01:35;14.10;99.90
66920;DHT22;53831;52.090;17.026;2023-07-22T04:02:36;14.10;99.90
66920;DHT22;53831;52.090;17.026;2023-07-22T04:03:36;14.10;99.90
66920;DHT22;53831;52.090;17.026;2023-07-22T04:04:37;14.10;99.90
66920;DHT22;53831;52.090;17.026;2023-07-22T04:05:38;14.10;99.90
66920;DHT22;53831;52.090;17.026;2023-07-22T04:06:38;14.10;99.90
66920;DHT22;53831;52.090;17.026;2023-07-22T04:07:39;14.20;99.90
66920;DHT22;53831;52.090;17.026;2023-07-22T04:08:39;14.20;99.90
66920;DHT22;53831;52.090;17.026;2023-07-22T04:09:40;14.20;99.90
66920;DHT22;53831;52.090;17.026;2023-07-22T04:10:41;14.20;99.90
66920;DHT22;53831;52.090;17.026;2023-07-22T04:11:52;14.20;99.90
66920;DHT22;53831;52.090;17.026;2023-07-22T04:12:52;14.20;99.90
66920;DHT22;53831;52.090;17.026;2023-07-22T04:13:53;14.20;99.90
66920;DHT22;53831;52.090;17.026;2023-07-22T04:14:54;14.30;99.90
66920;DHT22;53831;52.090;17.026;2023-07-22T04:15:54;14.30;99.90
66920;DHT22;53831;52.090;17.026;2023-07-22T04:16:55;14.30;99.90
66920;DHT22;53831;52.090;17.026;2023-07-22T04:17:55;14.30;99.90
66920;DHT22;53831;52.090;17.026;2023-07-22T04:18:56;14.30;99.90
66920;DHT22;53831;52.090;17.026;2023-07-22T04:19:57;14.30;99.90
66920;DHT22;53831;52.090;17.026;2023-07-22T04:20:57;14.40;99.90
66920;DHT22;53831;52.090;17.026;2023-07-22T04:21:58;14.40;99.90
66920;DHT22;53831;52.090;17.026;2023-07-22T04:22:59;14.40;99.90
66920;DHT22;53831;52.090;17.026;2023-07-22T04:24:02;14.40;99.90
66920;DHT22;53831;52.090;17.026;2023-07-22T04:25:05;14.40;99.90
66920;DHT22;53831;52.090;17.026;2023-07-22T04:26:06;14.40;99.90
66920;DHT22;53831;52.090;17.026;2023-07-22T04:27:07;14.40;99.90
66920;DHT22;53831;52.090;17.026;2023-07-22T04:28:08;14.50;99.90
66920;DHT22;53831;52.090;17.026;2023-07-22T04:29:09;14.50;99.90
66920;DHT22;53831;52.090;17.026;2023-07-22T04:30:12;14.50;99.90
66920;DHT22;53831;52.090;17.026;2023-07-22T04:31:20;14.50;99.90
66920;DHT22;53831;52.090;17.026;2023-07-22T04:32:20;14.50;99.90
66920;DHT22;53831;52.090;17.026;2023-07-22T04:33:21;14.60;99.90
66920;DHT22;53831;52.090;17.026;2023-07-22T04:34:22;14.60;99.90
66920;DHT22;53831;52.090;17.026;2023-07-22T04:35:22;14.50;99.90
66920;DHT22;53831;52.090;17.026;2023-07-22T04:36:23;14.60;99.90
66920;DHT22;53831;52.090;17.026;2023-07-22T04:37:24;14.60;99.90
66920;DHT22;53831;52.090;17.026;2023-07-22T04:38:24;14.60;99.90
66920;DHT22;53831;52.090;17.026;2023-07-22T04:39:25;14.60;99.90
66920;DHT22;53831;52.090;17.026;2023-07-22T04:40:26;14.70;99.90
66920;DHT22;53831;52.090;17.026;2023-07-22T04:41:26;14.70;99.90
66920;DHT22;53831;52.090;17.026;2023-07-22T04:42:27;14.70;99.90
66920;DHT22;53831;52.090;17.026;2023-07-22T04:43:28;14.70;99.90
66920;DHT22;53831;52.090;17.026;2023-07-22T04:44:28;14.70;99.90
66920;DHT22;53831;52.090;17.026;2023-07-22T04:45:29;14.70;99.90
66920;DHT22;53831;52.090;17.026;2023-07-22T04:46:29;14.70;99.90
66920;DHT22;53831;52.090;17.026;2023-07-22T04:47:30;14.80;99.90
66920;DHT22;53831;52.090;17.026;2023-07-22T04:48:31;14.80;99.90
66920;DHT22;53831;52.090;17.026;2023-07-22T04:49:31;14.70;99.90
66920;DHT22;53831;52.090;17.026;2023-07-22T04:50:32;14.80;99.90
66920;DHT22;53831;52.090;17.026;2023-07-22T04:51:33;14.80;99.90
66920;DHT22;53831;52.090;17.026;2023-07-22T04:52:34;14.80;99.90
66920;DHT22;53831;52.090;17.026;2023-07-22T04:53:34;14.90;99.90
66920;DHT22;53831;52.090;17.026;2023-07-22T04:54:35;14.90;99.90
66920;DHT22;53831;52.090;17.026;2023-07-22T04:55:35;14.90;99.90
66920;DHT22;53831;52.090;17.026;2023-07-22T04:56:37;14.90;99.90
66920;DHT22;53831;52.090;17.026;2023-07-22T04:57:39;15.00;99.90
66920;DHT22;53831;52.090;17.026;2023-07-22T04:58:45;14.90;99.90
66920;DHT22;53831;52.090;17.026;2023-07-22T04:59:46;15.00;99.90
66920;DHT22;53831;52.090;17.026;2023-07-22T05:00:46;15.00;99.90
66920;DHT22;53831;52.090;17.026;2023-07-22T05:01:47;15.00;99.90
66920;DHT22;53831;52.090;17.026;2023-07-22T05:02:47;15.10;99.90
66920;DHT22;53831;52.090;17.026;2023-07-22T05:03:48;15.10;99.90
66920;DHT22;53831;52.090;17.026;2023-07-22T05:04:49;15.10;99.90
66920;DHT22;53831;52.090;17.026;2023-07-22T05:05:49;15.10;99.90
66920;DHT22;53831;52.090;17.026;2023-07-22T05:06:50;15.10;99.90
66920;DHT22;53831;52.090;17.026;2023-07-22T05:07:51;15.10;99.90
66920;DHT22;53831;52.090;17.026;2023-07-22T05:08:53;15.20;99.90
66920;DHT22;53831;52.090;17.026;2023-07-22T05:09:53;15.20;99.90
66920;DHT22;53831;52.090;17.026;2023-07-22T05:10:54;15.20;99.90
66920;DHT22;53831;52.090;17.026;2023-07-22T05:11:55;15.30;99.90
66920;DHT22;53831;52.090;17.026;2023-07-22T05:12:55;15.30;99.90
66920;DHT22;53831;52.090;17.026;2023-07-22T05:13:57;15.30;99.90
66920;DHT22;53831;52.090;17.026;2023-07-22T05:14:58;15.30;99.90
66920;DHT22;53831;52.090;17.026;2023-07-22T05:15:58;15.30;99.90
66920;DHT22;53831;52.090;17.026;2023-07-22T05:16:59;15.30;99.90
66920;DHT22;53831;52.090;17.026;2023-07-22T05:17:59;15.30;99.90
66920;DHT22;53831;52.090;17.026;2023-07-22T05:19:00;15.30;99.90
66920;DHT22;53831;52.090;17.026;2023-07-22T05:20:00;15.30;99.90
66920;DHT22;53831;52.090;17.026;2023-07-22T05:21:01;15.40;99.90
66920;DHT22;53831;52.090;17.026;2023-07-22T05:22:02;15.40;99.90
66920;DHT22;53831;52.090;17.026;2023-07-22T05:23:02;15.40;99.90
66920;DHT22;53831;52.090;17.026;2023-07-22T05:24:03;15.40;99.90
66920;DHT22;53831;52.090;17.026;2023-07-22T05:25:04;15.40;99.90
66920;DHT22;53831;52.090;17.026;2023-07-22T05:26:05;15.40;99.90
66920;DHT22;53831;52.090;17.026;2023-07-22T05:27:06;15.40;99.90
66920;DHT22;53831;52.090;17.026;2023-07-22T05:28:06;15.40;99.90
66920;DHT22;53831;52.090;17.026;2023-07-22T05:29:07;15.40;99.90
66920;DHT22;53831;52.090;17.026;2023-07-22T05:30:07;15.50;99.90
66920;DHT22;53831;52.090;17.026;2023-07-22T05:31:08;15.50;99.90
66920;DHT22;53831;52.090;17.026;2023-07-22T05:32:09;15.50;99.90
66920;DHT22;53831;52.090;17.026;2023-07-22T05:33:10;15.50;99.90
66920;DHT22;53831;52.090;17.026;2023-07-22T05:34:10;15.60;99.90
66920;DHT22;53831;52.090;17.026;2023-07-22T05:35:11;15.60;99.90
66920;DHT22;53831;52.090;17.026;2023-07-22T05:36:12;15.60;99.90
66920;DHT22;53831;52.090;17.026;2023-07-22T05:37:13;15.60;99.90
66920;DHT22;53831;52.090;17.026;2023-07-22T05:38:13;15.60;99.90
66920;DHT22;53831;52.090;17.026;2023-07-22T05:39:14;15.60;99.90
66920;DHT22;53831;52.090;17.026;2023-07-22T05:40:17;15.70;99.90
66920;DHT22;53831;52.090;17.026;2023-07-22T05:41:18;15.70;99.90
66920;DHT22;53831;52.090;17.026;2023-07-22T05:42:18;15.70;99.90
66920;DHT22;53831;52.090;17.026;2023-07-22T05:43:20;15.70;99.90
66920;DHT22;53831;52.090;17.026;2023-07-22T05:44:21;15.80;99.90
66920;DHT22;53831;52.090;17.026;2023-07-22T05:45:21;15.80;99.90
66920;DHT22;53831;52.090;17.026;2023-07-22T05:46:22;15.90;99.90
66920;DHT22;53831;52.090;17.026;2023-07-22T05:47:23;15.90;99.90
66920;DHT22;53831;52.090;17.026;2023-07-22T05:48:24;15.90;99.90
66920;DHT22;53831;52.090;17.026;2023-07-22T05:49:24;15.90;99.90
66920;DHT22;53831;52.090;17.026;2023-07-22T05:50:25;15.90;99.90
66920;DHT22;53831;52.090;17.026;2023-07-22T05:51:25;16.00;99.90
66920;DHT22;53831;52.090;17.026;2023-07-22T05:52:26;16.00;99.90
66920;DHT22;53831;52.090;17.026;2023-07-22T05:53:27;16.10;99.90
66920;DHT22;53831;52.090;17.026;2023-07-22T05:54:27;16.10;99.90
66920;DHT22;53831;52.090;17.026;2023-07-22T05:55:28;16.20;99.90
66920;DHT22;53831;52.090;17.026;2023-07-22T05:56:29;16.20;99.90
66920;DHT22;53831;52.090;17.026;2023-07-22T05:57:29;16.20;99.90
66920;DHT22;53831;52.090;17.026;2023-07-22T05:58:30;16.20;99.90
66920;DHT22;53831;52.090;17.026;2023-07-22T05:59:30;16.20;99.90
66920;DHT22;53831;52.090;17.026;2023-07-22T06:00:34;16.20;99.90
66920;DHT22;53831;52.090;17.026;2023-07-22T06:01:34;16.30;99.90
66920;DHT22;53831;52.090;17.026;2023-07-22T06:02:35;16.30;99.90
66920;DHT22;53831;52.090;17.026;2023-07-22T06:03:36;16.30;99.90
66920;DHT22;53831;52.090;17.026;2023-07-22T06:04:36;16.30;99.90
66920;DHT22;53831;52.090;17.026;2023-07-22T06:05:37;16.30;99.90
66920;DHT22;53831;52.090;17.026;2023-07-22T06:06:38;16.40;99.90
66920;DHT22;53831;52.090;17.026;2023-07-22T06:07:38;16.40;99.90
66920;DHT22;53831;52.090;17.026;2023-07-22T06:08:39;16.50;99.90
66920;DHT22;53831;52.090;17.026;2023-07-22T06:09:39;16.60;99.90
66920;DHT22;53831;52.090;17.026;2023-07-22T06:10:40;16.60;99.90
66920;DHT22;53831;52.090;17.026;2023-07-22T06:11:41;16.70;99.90
66920;DHT22;53831;52.090;17.026;2023-07-22T06:12:41;16.70;99.90
66920;DHT22;53831;52.090;17.026;2023-07-22T06:13:42;16.90;99.90
66920;DHT22;53831;52.090;17.026;2023-07-22T06:14:43;16.80;99.90
66920;DHT22;53831;52.090;17.026;2023-07-22T06:15:43;16.80;99.90
66920;DHT22;53831;52.090;17.026;2023-07-22T06:16:44;16.80;99.90
66920;DHT22;53831;52.090;17.026;2023-07-22T06:17:44;16.80;99.90
66920;DHT22;53831;52.090;17.026;2023-07-22T06:18:45;16.80;99.90